createdAt,value
2024-03-07T00:00:26.737Z,0.00
2024-03-07T00:01:26.720Z,0.00
2024-03-07T00:02:26.736Z,0.00
2024-03-07T00:03:26.704Z,0.00
2024-03-07T00:04:26.675Z,0.00
2024-03-07T00:05:26.795Z,0.00
2024-03-07T00:06:26.651Z,0.00
2024-03-07T00:07:26.656Z,0.00
2024-03-07T00:08:26.674Z,0.00
2024-03-07T00:09:26.632Z,0.00
2024-03-07T00:10:26.632Z,0.00
2024-03-07T00:11:26.686Z,0.00
2024-03-07T00:12:26.611Z,0.00
2024-03-07T00:13:26.588Z,0.00
2024-03-07T00:14:26.569Z,0.00
2024-03-07T00:15:26.624Z,0.00
2024-03-07T00:16:26.560Z,0.00
2024-03-07T00:17:26.562Z,0.00
2024-03-07T00:18:26.589Z,0.00
2024-03-07T00:19:26.527Z,0.00
2024-03-07T00:20:26.525Z,0.00
2024-03-07T00:21:26.537Z,0.00
2024-03-07T00:22:26.492Z,0.00
2024-03-07T00:23:26.487Z,0.00
2024-03-07T00:24:26.449Z,0.00
2024-03-07T00:25:26.466Z,0.00
2024-03-07T00:26:26.509Z,0.00
2024-03-07T00:27:26.466Z,0.00
2024-03-07T00:28:27.365Z,0.00
2024-03-07T00:29:26.482Z,0.00
2024-03-07T00:30:26.482Z,0.00
2024-03-07T00:31:26.441Z,0.00
2024-03-07T00:32:26.471Z,0.00
2024-03-07T00:33:28.497Z,0.00
2024-03-07T00:34:27.444Z,0.00
2024-03-07T00:35:26.476Z,0.00
2024-03-07T00:36:26.361Z,0.00
2024-03-07T00:37:26.378Z,0.00
2024-03-07T00:38:26.456Z,0.00
2024-03-07T00:39:26.373Z,0.00
2024-03-07T00:40:26.375Z,0.00
2024-03-07T00:41:26.355Z,0.00
2024-03-07T00:42:26.411Z,0.00
2024-03-07T00:43:26.284Z,0.00
2024-03-07T00:44:26.289Z,0.00
2024-03-07T00:45:26.416Z,0.00
2024-03-07T00:46:26.261Z,0.00
2024-03-07T00:47:26.355Z,0.00
2024-03-07T00:48:26.334Z,0.00
2024-03-07T00:49:26.202Z,0.00
2024-03-07T00:50:26.218Z,0.00
2024-03-07T00:51:26.488Z,0.00
2024-03-07T00:52:26.289Z,0.00
2024-03-07T00:53:26.184Z,0.00
2024-03-07T00:54:26.242Z,0.00
2024-03-07T00:55:26.190Z,0.00
2024-03-07T00:56:26.304Z,0.00
2024-03-07T00:57:26.150Z,0.00
2024-03-07T00:58:26.384Z,0.00
2024-03-07T00:59:26.107Z,0.00
2024-03-07T01:00:26.092Z,0.00
2024-03-07T01:01:26.186Z,0.00
2024-03-07T01:02:26.330Z,0.00
2024-03-07T01:03:26.025Z,0.00
2024-03-07T01:04:26.082Z,0.00
2024-03-07T01:05:26.159Z,0.00
2024-03-07T01:06:26.009Z,0.00
2024-03-07T01:07:26.053Z,0.00
2024-03-07T01:08:26.054Z,0.00
2024-03-07T01:09:25.985Z,0.00
2024-03-07T01:10:26.000Z,0.00
2024-03-07T01:11:25.977Z,0.00
2024-03-07T01:12:26.032Z,0.00
2024-03-07T01:13:25.940Z,0.00
2024-03-07T01:14:26.010Z,0.00
2024-03-07T01:15:25.905Z,0.00
2024-03-07T01:16:25.936Z,0.00
2024-03-07T01:17:25.953Z,0.00
2024-03-07T01:18:25.988Z,0.00
2024-03-07T01:19:25.966Z,0.00
2024-03-07T01:20:25.896Z,0.00
2024-03-07T01:21:25.847Z,0.00
2024-03-07T01:22:25.863Z,0.00
2024-03-07T01:23:25.911Z,0.00
2024-03-07T01:24:25.873Z,0.00
2024-03-07T01:25:25.799Z,0.00
2024-03-07T01:26:25.827Z,0.00
2024-03-07T01:27:25.896Z,0.00
2024-03-07T01:28:25.785Z,0.00
2024-03-07T01:29:25.899Z,0.00
2024-03-07T01:30:25.766Z,0.00
2024-03-07T01:31:25.752Z,0.00
2024-03-07T01:32:25.824Z,0.00
2024-03-07T01:33:25.778Z,0.00
2024-03-07T01:34:25.710Z,0.00
2024-03-07T01:35:25.733Z,0.00
2024-03-07T01:36:25.699Z,0.00
2024-03-07T01:37:25.674Z,0.00
2024-03-07T01:38:25.759Z,0.00
2024-03-07T01:39:25.666Z,0.00
2024-03-07T01:40:25.662Z,0.00
2024-03-07T01:41:25.694Z,0.00
2024-03-07T01:42:25.661Z,0.00
2024-03-07T01:43:25.686Z,0.00
2024-03-07T01:44:25.651Z,0.00
2024-03-07T01:45:25.609Z,0.00
2024-03-07T01:46:25.583Z,0.00
2024-03-07T01:47:25.678Z,0.00
2024-03-07T01:48:25.609Z,0.00
2024-03-07T01:49:25.577Z,0.00
2024-03-07T01:50:25.582Z,0.00
2024-03-07T01:51:25.639Z,0.00
2024-03-07T01:52:25.535Z,0.00
2024-03-07T01:53:25.600Z,0.00
2024-03-07T01:54:25.509Z,0.00
2024-03-07T01:55:25.554Z,0.00
2024-03-07T01:56:25.549Z,0.00
2024-03-07T01:57:25.488Z,0.00
2024-03-07T01:58:25.507Z,0.00
2024-03-07T01:59:25.642Z,0.00
2024-03-07T02:00:25.484Z,0.00
2024-03-07T02:01:25.450Z,0.00
2024-03-07T02:02:25.488Z,0.00
2024-03-07T02:03:25.451Z,0.00
2024-03-07T02:04:25.413Z,0.00
2024-03-07T02:05:25.551Z,0.00
2024-03-07T02:06:25.385Z,0.00
2024-03-07T02:07:25.400Z,0.00
2024-03-07T02:08:25.469Z,0.00
2024-03-07T02:09:25.332Z,0.00
2024-03-07T02:10:25.359Z,0.00
2024-03-07T02:11:25.479Z,0.00
2024-03-07T02:12:25.400Z,0.00
2024-03-07T02:13:25.318Z,0.00
2024-03-07T02:14:25.326Z,0.00
2024-03-07T02:15:25.403Z,0.00
2024-03-07T02:16:25.277Z,0.00
2024-03-07T02:17:25.338Z,0.00
2024-03-07T02:18:25.389Z,0.00
2024-03-07T02:19:25.284Z,0.00
2024-03-07T02:20:25.287Z,0.00
2024-03-07T02:21:25.261Z,0.00
2024-03-07T02:22:25.241Z,0.00
2024-03-07T02:23:25.286Z,0.00
2024-03-07T02:24:25.210Z,0.00
2024-03-07T02:25:25.217Z,0.00
2024-03-07T02:26:25.223Z,0.00
2024-03-07T02:27:25.170Z,0.00
2024-03-07T02:28:25.254Z,0.00
2024-03-07T02:29:25.175Z,0.00
2024-03-07T02:30:25.125Z,0.00
2024-03-07T02:31:25.122Z,0.00
2024-03-07T02:32:25.164Z,0.00
2024-03-07T02:33:25.197Z,0.00
2024-03-07T02:34:25.104Z,0.00
2024-03-07T02:35:25.347Z,0.00
2024-03-07T02:36:25.079Z,0.00
2024-03-07T02:37:25.097Z,0.00
2024-03-07T02:38:25.063Z,0.00
2024-03-07T02:39:25.018Z,0.00
2024-03-07T02:40:25.082Z,0.00
2024-03-07T02:41:25.055Z,0.00
2024-03-07T02:42:25.005Z,0.00
2024-03-07T02:43:25.036Z,0.00
2024-03-07T02:44:24.995Z,0.00
2024-03-07T02:45:25.038Z,0.00
2024-03-07T02:46:24.972Z,0.00
2024-03-07T02:47:25.106Z,0.00
2024-03-07T02:48:25.076Z,0.00
2024-03-07T02:49:24.941Z,0.00
2024-03-07T02:50:24.982Z,0.00
2024-03-07T02:51:24.930Z,0.00
2024-03-07T02:52:24.914Z,0.00
2024-03-07T02:53:24.914Z,0.00
2024-03-07T02:54:24.916Z,0.00
2024-03-07T02:55:24.954Z,0.00
2024-03-07T02:56:24.871Z,0.00
2024-03-07T02:57:24.844Z,0.00
2024-03-07T02:58:24.868Z,0.00
2024-03-07T02:59:24.834Z,0.00
2024-03-07T03:00:24.823Z,0.00
2024-03-07T03:01:24.872Z,0.00
2024-03-07T03:02:24.815Z,0.00
2024-03-07T03:03:24.799Z,0.00
2024-03-07T03:04:24.796Z,0.00
2024-03-07T03:05:24.818Z,0.00
2024-03-07T03:06:24.757Z,0.00
2024-03-07T03:07:24.752Z,0.00
2024-03-07T03:08:24.770Z,0.00
2024-03-07T03:09:24.719Z,0.00
2024-03-07T03:10:24.717Z,0.00
2024-03-07T03:11:24.798Z,0.00
2024-03-07T03:12:24.715Z,0.00
2024-03-07T03:13:24.752Z,0.00
2024-03-07T03:14:24.705Z,0.00
2024-03-07T03:15:24.679Z,0.00
2024-03-07T03:16:38.721Z,0.00
2024-03-07T03:17:25.726Z,0.00
2024-03-07T03:18:24.740Z,0.00
2024-03-07T03:19:24.634Z,0.00
2024-03-07T03:20:24.707Z,0.00
2024-03-07T03:21:24.619Z,0.00
2024-03-07T03:22:24.680Z,0.00
2024-03-07T03:23:24.666Z,0.00
2024-03-07T03:24:24.612Z,0.00
2024-03-07T03:25:24.594Z,0.00
2024-03-07T03:26:24.567Z,0.00
2024-03-07T03:27:24.537Z,0.00
2024-03-07T03:28:24.676Z,0.00
2024-03-07T03:29:24.595Z,0.00
2024-03-07T03:30:24.528Z,0.00
2024-03-07T03:31:24.482Z,0.00
2024-03-07T03:32:24.532Z,0.00
2024-03-07T03:33:24.655Z,0.00
2024-03-07T03:34:24.532Z,0.00
2024-03-07T03:35:24.472Z,0.00
2024-03-07T03:36:24.501Z,0.00
2024-03-07T03:37:24.416Z,0.00
2024-03-07T03:38:24.554Z,0.00
2024-03-07T03:39:24.422Z,0.00
2024-03-07T03:40:24.419Z,0.00
2024-03-07T03:41:24.515Z,0.00
2024-03-07T03:42:24.371Z,0.00
2024-03-07T03:43:24.885Z,0.00
2024-03-07T03:44:24.467Z,0.00
2024-03-07T03:45:24.344Z,0.00
2024-03-07T03:46:24.337Z,0.00
2024-03-07T03:47:24.340Z,0.00
2024-03-07T03:48:24.455Z,0.00
2024-03-07T03:49:24.374Z,0.00
2024-03-07T03:50:24.646Z,0.00
2024-03-07T03:51:24.266Z,0.00
2024-03-07T03:52:24.272Z,0.00
2024-03-07T03:53:24.304Z,0.00
2024-03-07T03:54:24.261Z,0.00
2024-03-07T03:55:24.240Z,0.00
2024-03-07T03:56:24.258Z,0.00
2024-03-07T03:57:24.214Z,0.00
2024-03-07T03:58:24.226Z,0.00
2024-03-07T03:59:24.289Z,0.00
2024-03-07T04:00:24.502Z,0.00
2024-03-07T04:01:24.253Z,0.00
2024-03-07T04:02:24.215Z,0.00
2024-03-07T04:03:24.173Z,0.00
2024-03-07T04:04:24.174Z,0.00
2024-03-07T04:05:24.161Z,0.00
2024-03-07T04:06:24.104Z,0.00
2024-03-07T04:07:24.109Z,0.00
2024-03-07T04:08:24.151Z,0.00
2024-03-07T04:09:24.105Z,0.00
2024-03-07T04:10:24.090Z,0.00
2024-03-07T04:11:24.144Z,0.00
2024-03-07T04:12:24.081Z,0.00
2024-03-07T04:13:24.079Z,0.00
2024-03-07T04:14:24.068Z,0.00
2024-03-07T04:15:24.030Z,0.00
2024-03-07T04:16:24.049Z,0.00
2024-03-07T04:17:24.134Z,0.00
2024-03-07T04:18:24.083Z,0.00
2024-03-07T04:19:23.986Z,0.00
2024-03-07T04:20:24.002Z,0.00
2024-03-07T04:21:23.978Z,0.00
2024-03-07T04:22:23.988Z,0.00
2024-03-07T04:23:23.997Z,0.00
2024-03-07T04:24:23.945Z,0.00
2024-03-07T04:25:23.957Z,0.00
2024-03-07T04:26:23.965Z,0.00
2024-03-07T04:27:23.932Z,0.00
2024-03-07T04:28:23.989Z,0.00
2024-03-07T04:29:24.036Z,0.00
2024-03-07T04:30:23.993Z,0.00
2024-03-07T04:31:23.858Z,0.00
2024-03-07T04:32:23.869Z,0.00
2024-03-07T04:33:23.994Z,0.00
2024-03-07T04:34:23.988Z,0.00
2024-03-07T04:35:23.999Z,0.00
2024-03-07T04:36:23.799Z,0.00
2024-03-07T04:37:23.819Z,0.00
2024-03-07T04:38:23.816Z,0.00
2024-03-07T04:39:23.802Z,0.00
2024-03-07T04:40:23.764Z,0.00
2024-03-07T04:41:23.793Z,0.00
2024-03-07T04:42:23.823Z,0.00
2024-03-07T04:43:23.740Z,0.00
2024-03-07T04:44:23.796Z,0.00
2024-03-07T04:45:23.793Z,0.00
2024-03-07T04:46:23.722Z,0.00
2024-03-07T04:47:23.811Z,0.00
2024-03-07T04:48:24.026Z,0.00
2024-03-07T04:49:23.890Z,0.00
2024-03-07T04:50:23.915Z,0.00
2024-03-07T04:51:23.648Z,0.00
2024-03-07T04:52:23.823Z,0.00
2024-03-07T04:53:23.746Z,0.00
2024-03-07T04:54:23.653Z,0.00
2024-03-07T04:55:23.650Z,0.00
2024-03-07T04:56:23.668Z,0.00
2024-03-07T04:57:23.548Z,0.00
2024-03-07T04:58:23.602Z,0.00
2024-03-07T04:59:23.653Z,0.00
2024-03-07T05:00:23.614Z,0.00
2024-03-07T05:01:23.546Z,0.00
2024-03-07T05:02:23.511Z,0.00
2024-03-07T05:03:25.876Z,0.00
2024-03-07T05:04:23.464Z,0.00
2024-03-07T05:05:24.360Z,0.00
2024-03-07T05:06:23.467Z,0.00
2024-03-07T05:07:23.441Z,0.00
2024-03-07T05:08:23.535Z,0.00
2024-03-07T05:09:23.524Z,0.00
2024-03-07T05:10:23.538Z,0.00
2024-03-07T05:11:23.496Z,0.00
2024-03-07T05:12:23.516Z,0.00
2024-03-07T05:13:23.377Z,0.00
2024-03-07T05:14:23.655Z,0.00
2024-03-07T05:15:23.476Z,0.00
2024-03-07T05:16:23.347Z,0.00
2024-03-07T05:17:23.407Z,0.00
2024-03-07T05:18:23.475Z,0.00
2024-03-07T05:19:23.313Z,0.00
2024-03-07T05:20:23.337Z,0.00
2024-03-07T05:21:23.296Z,0.00
2024-03-07T05:22:23.319Z,0.00
2024-03-07T05:23:23.290Z,0.00
2024-03-07T05:24:23.349Z,0.00
2024-03-07T05:25:23.707Z,0.00
2024-03-07T05:26:23.237Z,0.00
2024-03-07T05:27:23.235Z,0.00
2024-03-07T05:28:23.250Z,0.00
2024-03-07T05:29:23.210Z,0.00
2024-03-07T05:30:23.267Z,0.00
2024-03-07T05:31:23.270Z,0.00
2024-03-07T05:32:23.322Z,0.00
2024-03-07T05:33:23.344Z,5.62
2024-03-07T05:34:23.238Z,5.62
2024-03-07T05:35:23.302Z,5.62
2024-03-07T05:36:23.187Z,5.62
2024-03-07T05:37:23.172Z,5.62
2024-03-07T05:38:23.228Z,5.62
2024-03-07T05:39:23.099Z,5.62
2024-03-07T05:40:23.174Z,11.25
2024-03-07T05:41:23.312Z,11.25
2024-03-07T05:42:23.114Z,11.25
2024-03-07T05:43:23.064Z,11.25
2024-03-07T05:44:23.085Z,11.25
2024-03-07T05:45:23.134Z,11.25
2024-03-07T05:46:23.065Z,16.88
2024-03-07T05:47:23.540Z,16.88
2024-03-07T05:48:23.238Z,16.88
2024-03-07T05:49:23.017Z,16.88
2024-03-07T05:50:23.172Z,22.50
2024-03-07T05:51:23.210Z,22.50
2024-03-07T05:52:23.137Z,22.50
2024-03-07T05:53:23.009Z,28.12
2024-03-07T05:54:22.964Z,28.12
2024-03-07T05:55:22.980Z,28.12
2024-03-07T05:56:23.112Z,33.75
2024-03-07T05:57:23.018Z,33.75
2024-03-07T05:58:22.921Z,39.38
2024-03-07T05:59:23.055Z,39.38
2024-03-07T06:00:23.013Z,39.38
2024-03-07T06:01:23.021Z,45.00
2024-03-07T06:02:22.899Z,45.00
2024-03-07T06:03:22.882Z,45.00
2024-03-07T06:04:22.877Z,45.00
2024-03-07T06:05:22.971Z,45.00
2024-03-07T06:06:22.958Z,50.62
2024-03-07T06:07:22.859Z,50.62
2024-03-07T06:08:22.904Z,50.62
2024-03-07T06:09:22.931Z,56.25
2024-03-07T06:10:22.797Z,56.25
2024-03-07T06:11:23.271Z,61.88
2024-03-07T06:12:27.487Z,61.88
2024-03-07T06:13:23.861Z,61.88
2024-03-07T06:14:22.765Z,67.50
2024-03-07T06:15:22.793Z,67.50
2024-03-07T06:16:22.804Z,67.50
2024-03-07T06:17:23.327Z,67.50
2024-03-07T06:18:22.813Z,73.12
2024-03-07T06:19:22.759Z,73.12
2024-03-07T06:20:22.717Z,73.12
2024-03-07T06:21:22.720Z,78.75
2024-03-07T06:22:22.733Z,78.75
2024-03-07T06:23:22.782Z,78.75
2024-03-07T06:24:22.661Z,84.38
2024-03-07T06:25:22.665Z,84.38
2024-03-07T06:26:22.653Z,90.00
2024-03-07T06:27:22.644Z,90.00
2024-03-07T06:28:22.636Z,90.00
2024-03-07T06:29:22.636Z,95.62
2024-03-07T06:30:22.674Z,95.62
2024-03-07T06:31:22.669Z,95.62
2024-03-07T06:32:22.720Z,101.25
2024-03-07T06:33:24.776Z,101.25
2024-03-07T06:34:22.613Z,101.25
2024-03-07T06:35:22.611Z,106.88
2024-03-07T06:36:22.560Z,106.88
2024-03-07T06:37:22.573Z,106.88
2024-03-07T06:38:22.869Z,106.88
2024-03-07T06:39:22.492Z,112.50
2024-03-07T06:40:22.570Z,112.50
2024-03-07T06:41:22.517Z,112.50
2024-03-07T06:42:22.528Z,118.12
2024-03-07T06:43:22.461Z,118.12
2024-03-07T06:44:22.462Z,118.12
2024-03-07T06:45:22.447Z,123.75
2024-03-07T06:46:22.445Z,123.75
2024-03-07T06:47:22.433Z,123.75
2024-03-07T06:48:22.625Z,123.75
2024-03-07T06:49:22.412Z,123.75
2024-03-07T06:50:30.324Z,123.75
2024-03-07T06:51:23.401Z,135.00
2024-03-07T06:52:22.409Z,129.38
2024-03-07T06:53:22.438Z,129.38
2024-03-07T06:54:22.353Z,135.00
2024-03-07T06:55:22.333Z,135.00
2024-03-07T06:56:22.358Z,135.00
2024-03-07T06:57:22.305Z,140.62
2024-03-07T06:58:22.327Z,140.62
2024-03-07T06:59:22.516Z,140.62
2024-03-07T07:00:22.305Z,146.25
2024-03-07T07:01:22.472Z,146.25
2024-03-07T07:02:22.274Z,151.88
2024-03-07T07:03:22.242Z,151.88
2024-03-07T07:04:22.257Z,151.88
2024-03-07T07:05:22.276Z,157.50
2024-03-07T07:06:22.262Z,157.50
2024-03-07T07:07:22.197Z,157.50
2024-03-07T07:08:22.229Z,163.12
2024-03-07T07:09:22.182Z,163.12
2024-03-07T07:10:22.176Z,163.12
2024-03-07T07:11:22.292Z,168.75
2024-03-07T07:12:22.239Z,168.75
2024-03-07T07:13:22.239Z,168.75
2024-03-07T07:14:22.317Z,174.38
2024-03-07T07:15:22.223Z,174.38
2024-03-07T07:16:22.117Z,180.00
2024-03-07T07:17:22.196Z,180.00
2024-03-07T07:18:22.252Z,180.00
2024-03-07T07:19:22.329Z,185.62
2024-03-07T07:20:22.284Z,185.62
2024-03-07T07:21:22.162Z,185.62
2024-03-07T07:22:22.093Z,191.25
2024-03-07T07:23:22.249Z,191.25
2024-03-07T07:24:22.264Z,191.25
2024-03-07T07:25:22.044Z,196.88
2024-03-07T07:26:22.064Z,196.88
2024-03-07T07:27:22.041Z,196.88
2024-03-07T07:28:21.997Z,202.50
2024-03-07T07:29:22.103Z,202.50
2024-03-07T07:30:21.989Z,202.50
2024-03-07T07:31:21.971Z,208.12
2024-03-07T07:32:22.330Z,208.12
2024-03-07T07:33:22.063Z,208.12
2024-03-07T07:34:22.033Z,208.12
2024-03-07T07:35:22.150Z,213.75
2024-03-07T07:36:21.927Z,213.75
2024-03-07T07:37:21.963Z,219.38
2024-03-07T07:38:21.965Z,213.75
2024-03-07T07:39:21.901Z,213.75
2024-03-07T07:40:21.914Z,219.38
2024-03-07T07:41:21.912Z,219.38
2024-03-07T07:42:21.869Z,225.00
2024-03-07T07:43:29.258Z,225.00
2024-03-07T07:44:22.896Z,230.62
2024-03-07T07:45:21.831Z,230.62
2024-03-07T07:46:21.841Z,230.62
2024-03-07T07:47:21.817Z,236.25
2024-03-07T07:48:21.955Z,236.25
2024-03-07T07:49:21.794Z,236.25
2024-03-07T07:50:21.809Z,236.25
2024-03-07T07:51:21.767Z,241.88
2024-03-07T07:52:21.743Z,241.88
2024-03-07T07:53:21.775Z,247.50
2024-03-07T07:54:21.836Z,247.50
2024-03-07T07:55:21.715Z,247.50
2024-03-07T07:56:24.029Z,253.12
2024-03-07T07:57:21.702Z,253.12
2024-03-07T07:58:21.705Z,253.12
2024-03-07T07:59:21.712Z,258.75
2024-03-07T08:00:21.670Z,258.75
2024-03-07T08:01:21.726Z,258.75
2024-03-07T08:02:21.690Z,264.38
2024-03-07T08:03:21.737Z,264.38
2024-03-07T08:04:21.623Z,270.00
2024-03-07T08:05:21.683Z,270.00
2024-03-07T08:06:21.612Z,270.00
2024-03-07T08:07:21.612Z,275.62
2024-03-07T08:08:21.689Z,275.62
2024-03-07T08:09:21.585Z,275.62
2024-03-07T08:10:21.915Z,281.25
2024-03-07T08:11:21.659Z,281.25
2024-03-07T08:12:21.587Z,281.25
2024-03-07T08:13:21.554Z,286.88
2024-03-07T08:14:21.566Z,286.88
2024-03-07T08:15:21.539Z,292.50
2024-03-07T08:16:21.510Z,292.50
2024-03-07T08:17:21.517Z,292.50
2024-03-07T08:18:21.666Z,298.12
2024-03-07T08:19:21.517Z,298.12
2024-03-07T08:20:21.497Z,303.75
2024-03-07T08:21:21.494Z,303.75
2024-03-07T08:22:21.443Z,303.75
2024-03-07T08:23:21.493Z,309.38
2024-03-07T08:24:21.433Z,309.38
2024-03-07T08:25:21.463Z,309.38
2024-03-07T08:26:21.436Z,309.38
2024-03-07T08:27:21.395Z,309.38
2024-03-07T08:28:21.461Z,309.38
2024-03-07T08:29:21.416Z,309.38
2024-03-07T08:30:21.353Z,309.38
2024-03-07T08:31:21.356Z,315.00
2024-03-07T08:32:21.407Z,315.00
2024-03-07T08:33:21.527Z,320.62
2024-03-07T08:34:21.315Z,320.62
2024-03-07T08:35:21.463Z,320.62
2024-03-07T08:36:21.316Z,326.25
2024-03-07T08:37:21.308Z,326.25
2024-03-07T08:38:21.299Z,326.25
2024-03-07T08:39:21.305Z,326.25
2024-03-07T08:40:21.901Z,326.25
2024-03-07T08:41:21.307Z,326.25
2024-03-07T08:42:21.259Z,326.25
2024-03-07T08:43:21.262Z,326.25
2024-03-07T08:44:21.259Z,331.88
2024-03-07T08:45:21.216Z,331.88
2024-03-07T08:46:21.252Z,331.88
2024-03-07T08:47:21.222Z,337.50
2024-03-07T08:48:21.319Z,337.50
2024-03-07T08:49:21.187Z,337.50
2024-03-07T08:50:21.333Z,337.50
2024-03-07T08:51:21.157Z,337.50
2024-03-07T08:52:21.139Z,337.50
2024-03-07T08:53:21.170Z,343.12
2024-03-07T08:54:21.142Z,343.12
2024-03-07T08:55:21.110Z,343.12
2024-03-07T08:56:21.139Z,348.75
2024-03-07T08:57:21.081Z,348.75
2024-03-07T08:58:21.099Z,348.75
2024-03-07T08:59:21.149Z,348.75
2024-03-07T09:00:21.057Z,348.75
2024-03-07T09:01:21.086Z,348.75
2024-03-07T09:02:21.142Z,348.75
2024-03-07T09:03:21.048Z,354.38
2024-03-07T09:04:21.052Z,354.38
2024-03-07T09:05:21.039Z,354.38
2024-03-07T09:06:21.010Z,354.38
2024-03-07T09:07:21.000Z,360.00
2024-03-07T09:08:21.043Z,360.00
2024-03-07T09:09:20.983Z,365.62
2024-03-07T09:10:21.112Z,365.62
2024-03-07T09:11:21.080Z,365.62
2024-03-07T09:12:21.041Z,371.25
2024-03-07T09:13:21.039Z,371.25
2024-03-07T09:14:20.926Z,371.25
2024-03-07T09:15:20.943Z,371.25
2024-03-07T09:16:21.200Z,371.25
2024-03-07T09:17:20.927Z,376.88
2024-03-07T09:18:20.945Z,376.88
2024-03-07T09:19:20.871Z,376.88
2024-03-07T09:20:21.169Z,376.88
2024-03-07T09:21:20.840Z,376.88
2024-03-07T09:22:20.867Z,376.88
2024-03-07T09:23:20.910Z,376.88
2024-03-07T09:24:20.895Z,382.50
2024-03-07T09:25:21.110Z,376.88
2024-03-07T09:26:20.859Z,382.50
2024-03-07T09:27:20.805Z,388.12
2024-03-07T09:28:20.759Z,388.12
2024-03-07T09:29:20.949Z,388.12
2024-03-07T09:30:21.000Z,388.12
2024-03-07T09:31:20.738Z,388.12
2024-03-07T09:32:20.751Z,388.12
2024-03-07T09:33:21.092Z,388.12
2024-03-07T09:34:20.737Z,399.38
2024-03-07T09:35:20.862Z,393.75
2024-03-07T09:36:20.678Z,393.75
2024-03-07T09:37:20.692Z,393.75
2024-03-07T09:38:20.726Z,393.75
2024-03-07T09:39:20.673Z,393.75
2024-03-07T09:40:20.677Z,393.75
2024-03-07T09:41:20.667Z,388.12
2024-03-07T09:42:20.713Z,399.38
2024-03-07T09:43:20.715Z,405.00
2024-03-07T09:44:20.757Z,410.62
2024-03-07T09:45:21.703Z,405.00
2024-03-07T09:46:20.637Z,303.75
2024-03-07T09:47:20.641Z,410.62
2024-03-07T09:48:20.703Z,405.00
2024-03-07T09:49:20.603Z,410.62
2024-03-07T09:50:20.927Z,416.25
2024-03-07T09:51:20.529Z,405.00
2024-03-07T09:52:20.530Z,405.00
2024-03-07T09:53:20.584Z,427.50
2024-03-07T09:54:20.499Z,433.12
2024-03-07T09:55:20.549Z,433.12
2024-03-07T09:56:20.566Z,433.12
2024-03-07T09:57:20.478Z,421.88
2024-03-07T09:58:20.461Z,427.50
2024-03-07T09:59:20.478Z,416.25
2024-03-07T10:00:20.477Z,421.88
2024-03-07T10:01:20.566Z,433.12
2024-03-07T10:02:20.462Z,427.50
2024-03-07T10:03:20.516Z,433.12
2024-03-07T10:04:20.430Z,427.50
2024-03-07T10:05:20.458Z,421.88
2024-03-07T10:06:20.415Z,433.12
2024-03-07T10:07:20.579Z,382.50
2024-03-07T10:08:20.401Z,427.50
2024-03-07T10:09:20.369Z,421.88
2024-03-07T10:10:20.416Z,416.25
2024-03-07T10:11:20.398Z,427.50
2024-03-07T10:12:20.436Z,444.38
2024-03-07T10:13:20.324Z,410.62
2024-03-07T10:14:20.314Z,444.38
2024-03-07T10:15:20.460Z,371.25
2024-03-07T10:16:20.518Z,433.12
2024-03-07T10:17:20.338Z,438.75
2024-03-07T10:18:20.489Z,433.12
2024-03-07T10:19:20.234Z,427.50
2024-03-07T10:20:20.342Z,433.12
2024-03-07T10:21:20.328Z,433.12
2024-03-07T10:22:20.370Z,438.75
2024-03-07T10:23:20.281Z,444.38
2024-03-07T10:24:20.203Z,438.75
2024-03-07T10:25:20.219Z,438.75
2024-03-07T10:26:20.286Z,438.75
2024-03-07T10:27:20.238Z,438.75
2024-03-07T10:28:20.188Z,444.38
2024-03-07T10:29:20.247Z,444.38
2024-03-07T10:30:20.149Z,438.75
2024-03-07T10:31:20.214Z,438.75
2024-03-07T10:32:20.132Z,438.75
2024-03-07T10:33:20.484Z,444.38
2024-03-07T10:34:20.089Z,433.12
2024-03-07T10:35:20.104Z,438.75
2024-03-07T10:36:20.198Z,438.75
2024-03-07T10:37:20.079Z,438.75
2024-03-07T10:38:20.481Z,438.75
2024-03-07T10:39:20.039Z,427.50
2024-03-07T10:40:20.026Z,416.25
2024-03-07T10:41:20.058Z,438.75
2024-03-07T10:42:20.023Z,444.38
2024-03-07T10:43:20.105Z,427.50
2024-03-07T10:44:20.037Z,438.75
2024-03-07T10:45:19.968Z,444.38
2024-03-07T10:46:20.004Z,444.38
2024-03-07T10:47:20.065Z,444.38
2024-03-07T10:48:23.251Z,438.75
2024-03-07T10:49:20.996Z,433.12
2024-03-07T10:50:20.020Z,438.75
2024-03-07T10:51:20.022Z,433.12
2024-03-07T10:52:19.921Z,444.38
2024-03-07T10:53:19.934Z,444.38
2024-03-07T10:54:19.894Z,433.12
2024-03-07T10:55:19.936Z,438.75
2024-03-07T10:56:19.931Z,444.38
2024-03-07T10:57:19.882Z,444.38
2024-03-07T10:58:19.860Z,450.00
2024-03-07T10:59:19.917Z,444.38
2024-03-07T11:00:19.880Z,427.50
2024-03-07T11:01:19.899Z,433.12
2024-03-07T11:02:19.851Z,438.75
2024-03-07T11:03:19.780Z,450.00
2024-03-07T11:04:19.794Z,438.75
2024-03-07T11:05:19.804Z,438.75
2024-03-07T11:06:19.941Z,410.62
2024-03-07T11:07:19.749Z,410.62
2024-03-07T11:08:19.785Z,433.12
2024-03-07T11:09:19.768Z,427.50
2024-03-07T11:10:19.776Z,450.00
2024-03-07T11:11:19.789Z,450.00
2024-03-07T11:12:19.738Z,444.38
2024-03-07T11:13:19.727Z,444.38
2024-03-07T11:14:19.773Z,450.00
2024-03-07T11:15:19.677Z,444.38
2024-03-07T11:16:19.679Z,450.00
2024-03-07T11:17:19.692Z,450.00
2024-03-07T11:18:19.768Z,450.00
2024-03-07T11:19:19.621Z,455.62
2024-03-07T11:20:19.721Z,450.00
2024-03-07T11:21:19.634Z,455.62
2024-03-07T11:22:19.638Z,461.25
2024-03-07T11:23:19.671Z,450.00
2024-03-07T11:24:19.759Z,450.00
2024-03-07T11:26:13.672Z,450.00
2024-03-07T11:27:16.703Z,450.00
2024-03-07T11:28:13.948Z,450.00
2024-03-07T11:29:13.920Z,450.00
2024-03-07T11:30:13.949Z,455.62
2024-03-07T11:31:13.892Z,450.00
2024-03-07T11:32:13.908Z,455.62
2024-03-07T11:33:14.149Z,444.38
2024-03-07T11:34:13.874Z,444.38
2024-03-07T11:35:13.867Z,450.00
2024-03-07T11:36:13.982Z,450.00
2024-03-07T11:37:13.830Z,455.62
2024-03-07T11:38:13.847Z,450.00
2024-03-07T11:39:13.871Z,450.00
2024-03-07T11:40:13.877Z,444.38
2024-03-07T11:41:13.810Z,438.75
2024-03-07T11:42:13.762Z,444.38
2024-03-07T11:43:13.913Z,450.00
2024-03-07T11:44:13.769Z,444.38
2024-03-07T11:45:13.777Z,450.00
2024-03-07T11:46:13.786Z,444.38
2024-03-07T11:47:13.784Z,444.38
2024-03-07T11:48:14.175Z,444.38
2024-03-07T11:49:13.706Z,444.38
2024-03-07T11:50:13.867Z,444.38
2024-03-07T11:51:13.717Z,438.75
2024-03-07T11:52:13.669Z,438.75
2024-03-07T11:53:13.851Z,444.38
2024-03-07T11:54:13.655Z,444.38
2024-03-07T11:55:13.657Z,444.38
2024-03-07T11:56:13.672Z,438.75
2024-03-07T11:57:13.646Z,433.12
2024-03-07T11:58:13.645Z,450.00
2024-03-07T11:59:13.592Z,438.75
2024-03-07T12:00:13.640Z,433.12
2024-03-07T12:01:13.597Z,438.75
2024-03-07T12:02:13.631Z,444.38
2024-03-07T12:03:13.682Z,438.75
2024-03-07T12:04:13.552Z,438.75
2024-03-07T12:05:13.555Z,444.38
2024-03-07T12:06:14.026Z,444.38
2024-03-07T12:07:13.567Z,438.75
2024-03-07T12:08:13.508Z,450.00
2024-03-07T12:09:13.545Z,438.75
2024-03-07T12:10:13.500Z,444.38
2024-03-07T12:11:13.506Z,438.75
2024-03-07T12:12:13.630Z,444.38
2024-03-07T12:13:13.464Z,438.75
2024-03-07T12:14:13.568Z,433.12
2024-03-07T12:15:13.469Z,433.12
2024-03-07T12:16:13.406Z,433.12
2024-03-07T12:17:13.498Z,433.12
2024-03-07T12:18:13.506Z,444.38
2024-03-07T12:19:13.387Z,438.75
2024-03-07T12:20:13.440Z,427.50
2024-03-07T12:21:13.501Z,433.12
2024-03-07T12:22:13.429Z,433.12
2024-03-07T12:23:13.561Z,433.12
2024-03-07T12:24:13.420Z,427.50
2024-03-07T12:25:13.363Z,421.88
2024-03-07T12:26:13.313Z,416.25
2024-03-07T12:27:13.360Z,427.50
2024-03-07T12:28:13.330Z,421.88
2024-03-07T12:29:13.349Z,427.50
2024-03-07T12:30:13.315Z,427.50
2024-03-07T12:31:13.423Z,427.50
2024-03-07T12:32:13.270Z,427.50
2024-03-07T12:33:13.452Z,427.50
2024-03-07T12:34:13.229Z,427.50
2024-03-07T12:35:13.261Z,427.50
2024-03-07T12:36:13.252Z,433.12
2024-03-07T12:37:13.247Z,433.12
2024-03-07T12:38:13.185Z,421.88
2024-03-07T12:39:13.283Z,421.88
2024-03-07T12:40:13.266Z,421.88
2024-03-07T12:41:13.156Z,421.88
2024-03-07T12:42:13.253Z,433.12
2024-03-07T12:43:13.179Z,427.50
2024-03-07T12:44:13.178Z,421.88
2024-03-07T12:45:13.187Z,421.88
2024-03-07T12:46:13.094Z,421.88
2024-03-07T12:47:13.141Z,427.50
2024-03-07T12:48:13.204Z,427.50
2024-03-07T12:49:13.086Z,421.88
2024-03-07T12:50:13.060Z,421.88
2024-03-07T12:51:13.067Z,416.25
2024-03-07T12:52:13.041Z,421.88